Time;durP1;ratioP1;P1;durP2;ratioP2;P2;SDS_P1;SDS_P2;PMS_P1;PMS_P2;Temp;Humidity;BMP_temperature;BMP_pressure;BME280_temperature;BME280_humidity;BME280_pressure;Samples;Min_cycle;Max_cycle;Signal;HPM_P1;HPM_P2
2024/03/19 00:01:54;;;;;;;6.80;4.03;;;8.20;99.90;;;;;;5091377;28;20036;-81
2024/03/19 00:04:22;;;;;;;7.93;4.78;;;8.20;99.90;;;;;;5090339;28;20027;-82
2024/03/19 00:10:02;;;;;;;6.03;3.53;;;8.10;99.90;;;;;;5069911;28;20039;-81
2024/03/19 00:12:32;;;;;;;6.72;3.45;;;8.10;99.90;;;;;;5089520;28;20573;-82
2024/03/19 00:15:01;;;;;;;6.60;4.13;;;8.10;99.90;;;;;;5089891;28;20058;-81
2024/03/19 00:17:27;;;;;;;8.80;3.33;;;8.40;99.90;;;;;;5089939;28;20063;-83
2024/03/19 00:19:55;;;;;;;9.07;4.40;;;8.50;99.90;;;;;;5091806;28;20039;-82
2024/03/19 00:22:22;;;;;;;6.80;3.90;;;8.40;99.90;;;;;;5090560;28;20376;-83
2024/03/19 00:24:48;;;;;;;8.43;3.65;;;8.20;99.90;;;;;;5090110;28;20134;-84
2024/03/19 00:27:14;;;;;;;6.32;3.92;;;8.10;99.90;;;;;;5092492;28;20031;-84
2024/03/19 00:29:40;;;;;;;6.50;4.05;;;8.10;99.90;;;;;;5092988;28;20128;-84
2024/03/19 00:32:06;;;;;;;6.38;3.53;;;8.20;99.90;;;;;;5091234;28;20073;-84
2024/03/19 00:34:31;;;;;;;8.82;3.88;;;8.20;99.90;;;;;;5094557;28;20466;-83
2024/03/19 00:36:59;;;;;;;7.00;4.43;;;8.10;99.90;;;;;;5096231;28;20028;-84
2024/03/19 00:39:25;;;;;;;8.10;4.47;;;8.20;99.90;;;;;;5096332;28;20036;-82
2024/03/19 00:41:50;;;;;;;6.80;4.22;;;8.40;99.90;;;;;;5097301;28;20081;-81
2024/03/19 00:44:19;;;;;;;6.22;3.40;;;8.40;99.90;;;;;;5096243;28;20512;-81
2024/03/19 00:47:11;;;;;;;9.98;3.35;;;8.20;99.90;;;;;;5097610;28;20039;-82
2024/03/19 00:49:37;;;;;;;6.97;3.50;;;8.10;99.90;;;;;;5093574;28;20777;-81
2024/03/19 00:52:03;;;;;;;5.40;3.28;;;8.10;99.90;;;;;;5097865;28;20036;-82
2024/03/19 00:54:37;;;;;;;8.30;3.35;;;8.10;99.90;;;;;;5097827;28;20093;-81
2024/03/19 00:57:21;;;;;;;5.03;3.17;;;8.00;99.90;;;;;;5097028;28;20032;-82
2024/03/19 00:59:47;;;;;;;5.97;3.10;;;8.00;99.90;;;;;;5097533;28;20026;-82
2024/03/19 01:02:12;;;;;;;8.75;3.92;;;7.90;99.90;;;;;;5095631;28;20031;-81
2024/03/19 01:04:38;;;;;;;7.35;4.40;;;7.80;99.90;;;;;;5097991;28;20047;-81
2024/03/19 01:07:04;;;;;;;7.05;3.70;;;7.70;99.90;;;;;;5096446;28;20084;-82
2024/03/19 01:09:35;;;;;;;6.63;3.63;;;7.60;99.90;;;;;;5096794;28;20036;-82
2024/03/19 01:12:39;;;;;;;5.40;3.75;;;7.70;99.90;;;;;;5098237;28;20023;-82
2024/03/19 01:15:26;;;;;;;;;;;;;;;;;;;;;
2024/03/19 01:17:52;;;;;;;6.05;3.65;;;7.90;99.90;;;;;;5067208;27;20047;-81
2024/03/19 01:21:02;;;;;;;5.90;3.55;;;8.10;99.90;;;;;;5097454;28;20034;-82
2024/03/19 01:23:49;;;;;;;5.45;3.22;;;8.10;99.90;;;;;;5090665;28;20134;-82
2024/03/19 01:26:14;;;;;;;8.15;4.03;;;8.10;99.90;;;;;;5094487;28;20051;-82
2024/03/19 01:28:40;;;;;;;6.13;3.92;;;8.10;99.90;;;;;;5094949;28;20035;-81
2024/03/19 01:31:08;;;;;;;6.95;3.67;;;7.90;99.90;;;;;;5095192;28;20464;-81
2024/03/19 01:33:40;;;;;;;5.05;3.00;;;7.90;99.90;;;;;;5095502;28;20023;-81
2024/03/19 01:39:59;;;;;;;5.28;3.25;;;7.80;99.90;;;;;;4993142;28;20192;-82
2024/03/19 01:42:27;;;;;;;6.18;3.65;;;7.90;99.90;;;;;;4993299;28;20034;-81
2024/03/19 01:45:09;;;;;;;7.15;3.85;;;7.70;99.90;;;;;;5074776;28;20578;-81
2024/03/19 01:47:35;;;;;;;9.63;3.75;;;7.70;99.90;;;;;;5094751;28;20071;-81
2024/03/19 01:50:30;;;;;;;9.95;3.85;;;7.60;99.90;;;;;;5095691;28;20043;-81
2024/03/19 01:52:56;;;;;;;10.43;4.53;;;7.60;99.90;;;;;;5094609;28;20058;-81
2024/03/19 01:55:23;;;;;;;8.15;3.92;;;7.60;99.90;;;;;;5095458;28;20273;-81
2024/03/19 01:57:51;;;;;;;7.55;3.47;;;7.60;99.90;;;;;;5096861;28;20035;-81
2024/03/19 02:00:20;;;;;;;6.28;3.47;;;7.70;99.90;;;;;;5095478;28;20409;-82
2024/03/19 02:02:46;;;;;;;5.35;3.67;;;7.30;99.90;;;;;;5094871;28;20078;-81
2024/03/19 02:05:12;;;;;;;6.57;4.00;;;7.10;99.90;;;;;;5096602;27;20126;-82
2024/03/19 02:07:37;;;;;;;5.70;3.13;;;7.10;99.90;;;;;;5096902;28;20034;-82
2024/03/19 02:10:04;;;;;;;8.57;4.00;;;7.30;99.90;;;;;;5095037;28;20059;-81
2024/03/19 02:12:30;;;;;;;6.43;3.47;;;7.60;99.90;;;;;;5095064;28;20470;-82
2024/03/19 02:14:56;;;;;;;7.10;3.80;;;7.60;99.90;;;;;;5097017;28;20738;-81
2024/03/19 02:17:23;;;;;;;5.72;3.50;;;7.50;99.90;;;;;;5083743;28;20142;-82
2024/03/19 02:20:39;;;;;;;6.32;3.67;;;7.60;99.90;;;;;;5086781;28;20028;-82
2024/03/19 02:23:05;;;;;;;5.60;3.00;;;7.90;99.90;;;;;;5064648;28;20036;-83
2024/03/19 02:25:31;;;;;;;5.18;2.92;;;7.80;99.90;;;;;;5088682;28;20114;-82
2024/03/19 02:27:57;;;;;;;6.72;3.50;;;7.80;99.90;;;;;;5092420;28;20039;-81
2024/03/19 02:30:25;;;;;;;6.85;3.63;;;7.50;99.90;;;;;;5094563;28;20035;-82
2024/03/19 02:32:51;;;;;;;5.68;3.28;;;7.40;99.90;;;;;;5094348;28;20024;-82
2024/03/19 02:35:16;;;;;;;5.85;3.78;;;7.50;99.90;;;;;;5096881;28;20454;-82
2024/03/19 02:37:42;;;;;;;7.30;3.50;;;7.70;99.90;;;;;;5094841;28;20033;-81
2024/03/19 02:40:09;;;;;;;5.25;2.80;;;7.70;99.90;;;;;;5094520;28;20617;-82
2024/03/19 02:42:35;;;;;;;3.72;2.17;;;7.40;99.90;;;;;;5095580;28;20173;-81
2024/03/19 02:45:03;;;;;;;5.55;2.78;;;7.30;99.90;;;;;;5094683;28;20039;-82
2024/03/19 02:48:12;;;;;;;4.90;2.17;;;7.20;99.90;;;;;;5096521;28;20035;-81
2024/03/19 02:50:38;;;;;;;7.13;2.60;;;7.10;99.90;;;;;;5094434;28;20043;-81
2024/03/19 02:53:35;;;;;;;;;;;;;;;;;;;;;
2024/03/19 02:56:01;;;;;;;6.10;3.17;;;7.50;99.90;;;;;;5088899;28;20039;-82
2024/03/19 02:58:27;;;;;;;3.92;2.03;;;7.60;99.90;;;;;;5095241;28;20042;-82
2024/03/19 03:00:53;;;;;;;5.15;2.50;;;7.60;99.90;;;;;;5093821;28;20681;-82
2024/03/19 03:03:19;;;;;;;5.10;2.75;;;7.30;99.90;;;;;;5093737;28;20032;-82
2024/03/19 03:05:45;;;;;;;7.03;3.17;;;7.50;99.90;;;;;;5094911;28;20031;-82
2024/03/19 03:08:11;;;;;;;7.05;4.18;;;7.70;99.90;;;;;;5094491;28;20085;-82
2024/03/19 03:10:38;;;;;;;5.32;2.67;;;8.10;99.90;;;;;;5092835;28;20448;-82
2024/03/19 03:13:04;;;;;;;5.45;3.08;;;7.90;99.90;;;;;;5094564;28;20043;-82
2024/03/19 03:15:30;;;;;;;6.35;3.78;;;7.90;99.90;;;;;;5094894;28;20031;-82
2024/03/19 03:17:56;;;;;;;8.52;4.05;;;8.00;99.90;;;;;;5093386;28;20515;-82
2024/03/19 03:20:22;;;;;;;5.95;2.90;;;8.00;99.90;;;;;;5095126;28;20031;-83
2024/03/19 03:22:48;;;;;;;5.60;3.40;;;7.90;99.90;;;;;;5094967;28;20067;-83
2024/03/19 03:25:15;;;;;;;5.55;3.40;;;8.10;99.90;;;;;;5093765;28;20135;-83
2024/03/19 03:27:44;;;;;;;7.35;3.80;;;8.10;99.90;;;;;;5095133;28;20031;-83
2024/03/19 03:30:11;;;;;;;5.75;3.13;;;8.10;99.90;;;;;;5095318;28;20084;-83
2024/03/19 03:32:38;;;;;;;5.63;2.42;;;8.20;99.90;;;;;;5093489;28;20032;-81
2024/03/19 03:35:04;;;;;;;5.75;2.70;;;7.90;99.90;;;;;;5092831;28;20039;-81
2024/03/19 03:37:31;;;;;;;5.53;2.83;;;7.70;99.90;;;;;;5094393;28;20097;-81
2024/03/19 03:40:14;;;;;;;4.45;2.58;;;7.70;99.90;;;;;;5094100;28;20035;-81
2024/03/19 03:43:06;;;;;;;3.92;2.33;;;7.60;99.90;;;;;;5092445;28;20031;-81
2024/03/19 03:45:32;;;;;;;6.00;2.95;;;7.60;99.90;;;;;;5089004;28;20062;-82
2024/03/19 03:47:58;;;;;;;5.82;2.60;;;7.60;99.90;;;;;;5093760;28;21324;-81
2024/03/19 03:50:24;;;;;;;4.18;2.05;;;7.80;99.90;;;;;;5095220;28;20115;-82
2024/03/19 03:52:49;;;;;;;4.80;2.15;;;7.40;99.90;;;;;;5093233;28;20078;-82
2024/03/19 03:55:15;;;;;;;4.90;2.60;;;7.30;99.90;;;;;;5094458;28;20397;-82
2024/03/19 03:57:41;;;;;;;7.68;2.40;;;7.30;99.90;;;;;;5093885;28;20698;-84
2024/03/19 04:00:08;;;;;;;4.53;2.47;;;7.40;99.90;;;;;;5093638;28;20031;-84
2024/03/19 04:02:45;;;;;;;3.95;2.15;;;7.30;99.90;;;;;;5092827;28;20738;-85
2024/03/19 04:05:11;;;;;;;5.63;2.30;;;7.00;99.90;;;;;;5090871;28;20043;-84
2024/03/19 04:07:41;;;;;;;5.30;2.85;;;7.00;99.90;;;;;;5090286;28;20035;-84
2024/03/19 04:10:11;;;;;;;5.63;2.25;;;7.20;99.90;;;;;;5090038;28;20198;-85
2024/03/19 04:12:37;;;;;;;3.63;1.98;;;7.10;99.90;;;;;;5092601;28;20032;-84
2024/03/19 04:15:07;;;;;;;7.20;2.50;;;6.90;99.90;;;;;;5095246;28;20028;-84
2024/03/19 04:17:37;;;;;;;4.45;2.50;;;6.80;99.90;;;;;;5092546;28;20150;-84
2024/03/19 04:20:05;;;;;;;4.47;2.38;;;6.80;99.90;;;;;;5092009;28;20039;-84
2024/03/19 04:22:33;;;;;;;5.18;2.33;;;6.70;99.90;;;;;;5092429;28;20095;-84
2024/03/19 04:24:59;;;;;;;4.07;1.80;;;6.80;99.90;;;;;;5091754;28;20028;-82
2024/03/19 04:27:32;;;;;;;5.07;2.35;;;6.60;99.90;;;;;;5092138;28;20035;-82
2024/03/19 04:29:57;;;;;;;3.72;2.20;;;6.50;99.90;;;;;;5095312;28;20755;-84
2024/03/19 04:32:23;;;;;;;5.93;2.72;;;6.70;99.90;;;;;;5093643;28;20376;-84
2024/03/19 04:34:49;;;;;;;8.65;2.38;;;7.00;99.90;;;;;;5092918;28;20036;-84
2024/03/19 04:37:14;;;;;;;5.22;2.20;;;6.80;99.90;;;;;;5095004;28;20012;-84
2024/03/19 04:39:40;;;;;;;6.32;2.72;;;7.10;99.90;;;;;;5093839;27;21248;-84
2024/03/19 04:42:07;;;;;;;5.57;2.30;;;7.30;99.90;;;;;;5092670;28;20015;-84
2024/03/19 04:44:33;;;;;;;5.55;2.20;;;7.20;99.90;;;;;;5093876;28;20031;-84
2024/03/19 04:46:59;;;;;;;3.47;2.10;;;7.10;99.90;;;;;;5092515;28;20507;-83
2024/03/19 04:49:24;;;;;;;6.00;2.60;;;6.90;99.90;;;;;;5093760;28;20503;-82
2024/03/19 04:51:50;;;;;;;3.72;2.13;;;7.10;99.90;;;;;;5094839;28;20031;-82
2024/03/19 04:54:16;;;;;;;4.93;2.30;;;7.10;99.90;;;;;;5094720;28;20641;-82
2024/03/19 04:56:42;;;;;;;3.50;1.80;;;7.00;99.90;;;;;;5093591;28;20114;-82
2024/03/19 04:59:07;;;;;;;4.50;2.30;;;7.00;99.90;;;;;;5093430;28;20035;-83
2024/03/19 05:01:33;;;;;;;4.03;2.00;;;7.10;99.90;;;;;;5091488;28;20109;-84
2024/03/19 05:03:58;;;;;;;4.90;2.78;;;7.20;99.90;;;;;;5091183;28;20175;-83
2024/03/19 05:06:24;;;;;;;4.10;2.00;;;7.10;99.90;;;;;;5091873;28;20035;-84
2024/03/19 05:08:50;;;;;;;3.70;2.30;;;6.80;99.90;;;;;;5091310;28;20027;-84
2024/03/19 05:11:16;;;;;;;6.25;2.15;;;6.70;99.90;;;;;;5089500;28;20032;-83
2024/03/19 05:13:41;;;;;;;5.25;2.17;;;6.70;99.90;;;;;;5093266;28;20077;-83
2024/03/19 05:16:27;;;;;;;9.30;2.53;;;6.60;99.90;;;;;;5092202;27;20081;-82
2024/03/19 05:19:11;;;;;;;4.07;1.98;;;6.60;99.90;;;;;;5090738;28;20085;-82
2024/03/19 05:21:52;;;;;;;4.47;2.00;;;6.50;99.90;;;;;;5088980;28;20612;-82
2024/03/19 05:24:18;;;;;;;3.83;1.70;;;6.60;99.90;;;;;;5090498;28;20028;-83
2024/03/19 05:26:44;;;;;;;6.20;2.05;;;6.60;99.90;;;;;;5090103;28;20040;-82
2024/03/19 05:29:48;;;;;;;4.13;1.90;;;6.80;99.90;;;;;;5092561;28;20554;-82
2024/03/19 05:32:23;;;;;;;3.22;1.50;;;6.80;99.90;;;;;;5028089;28;20410;-81
2024/03/19 05:34:49;;;;;;;3.35;1.58;;;6.60;99.90;;;;;;5084599;28;20623;-82
2024/03/19 05:37:18;;;;;;;4.60;2.17;;;6.60;99.90;;;;;;5090738;28;20043;-82
2024/03/19 05:39:50;;;;;;;3.58;1.90;;;6.60;99.90;;;;;;5089960;28;20120;-82
2024/03/19 05:42:16;;;;;;;3.33;1.52;;;6.50;99.90;;;;;;5088904;28;20048;-82
2024/03/19 05:44:42;;;;;;;3.42;1.88;;;6.70;99.90;;;;;;5089859;28;20035;-83
2024/03/19 05:47:07;;;;;;;4.47;2.00;;;6.50;99.90;;;;;;5090692;28;20425;-81
2024/03/19 05:49:44;;;;;;;3.35;1.90;;;6.60;99.90;;;;;;5090134;28;20041;-81
2024/03/19 05:52:20;;;;;;;4.15;1.90;;;6.70;99.90;;;;;;5089910;28;20046;-82
2024/03/19 05:54:45;;;;;;;4.22;1.98;;;7.10;99.90;;;;;;5090073;28;20043;-82
2024/03/19 05:57:11;;;;;;;6.55;1.60;;;7.10;99.90;;;;;;5090703;28;20771;-83
2024/03/19 05:59:43;;;;;;;2.80;1.38;;;6.90;99.90;;;;;;5091289;28;20470;-82
2024/03/19 06:02:09;;;;;;;4.15;1.48;;;6.80;99.90;;;;;;5090367;28;20043;-84
2024/03/19 06:04:35;;;;;;;2.67;1.30;;;6.70;99.90;;;;;;5087294;28;20059;-84
2024/03/19 06:07:21;;;;;;;3.40;1.48;;;6.60;99.90;;;;;;5090036;28;20149;-82
2024/03/19 06:09:50;;;;;;;3.58;1.70;;;6.90;99.90;;;;;;5089409;28;20513;-82
2024/03/19 06:12:15;;;;;;;3.60;1.65;;;6.90;99.90;;;;;;5089172;28;20723;-82
2024/03/19 06:14:41;;;;;;;2.80;1.23;;;6.90;99.90;;;;;;5091574;28;20036;-82
2024/03/19 06:17:07;;;;;;;3.78;1.33;;;6.80;99.90;;;;;;5096053;28;20422;-82
2024/03/19 06:19:33;;;;;;;3.00;1.63;;;6.80;99.90;;;;;;5091436;28;20040;-81
2024/03/19 06:21:59;;;;;;;3.55;1.30;;;6.80;99.90;;;;;;5089851;28;20619;-81
2024/03/19 06:24:25;;;;;;;4.43;1.50;;;6.90;99.90;;;;;;5090783;28;20099;-82
2024/03/19 06:26:50;;;;;;;4.32;2.40;;;7.00;99.90;;;;;;5087387;28;20068;-82
2024/03/19 06:29:16;;;;;;;3.10;1.58;;;7.00;99.90;;;;;;5091127;28;20024;-83
2024/03/19 06:31:41;;;;;;;3.55;1.30;;;7.00;99.90;;;;;;5089247;28;20528;-82
2024/03/19 06:34:08;;;;;;;3.13;1.40;;;6.90;99.90;;;;;;5090901;28;20039;-86
2024/03/19 06:36:34;;;;;;;3.22;1.40;;;7.00;99.90;;;;;;5096817;28;20035;-81
2024/03/19 06:38:59;;;;;;;3.50;1.83;;;7.10;99.90;;;;;;5089250;28;20032;-82
2024/03/19 06:41:25;;;;;;;3.00;1.50;;;7.00;99.90;;;;;;5088131;28;20039;-84
2024/03/19 06:43:51;;;;;;;3.60;1.27;;;7.00;99.90;;;;;;5089444;28;20042;-80
2024/03/19 06:46:17;;;;;;;2.80;1.45;;;7.20;99.90;;;;;;5089273;28;20043;-81
2024/03/19 06:48:45;;;;;;;4.15;1.73;;;7.20;99.90;;;;;;5089361;28;20031;-81
2024/03/19 06:51:12;;;;;;;3.50;1.23;;;7.30;99.90;;;;;;5089584;28;20373;-81
2024/03/19 06:53:38;;;;;;;3.30;1.75;;;7.40;99.90;;;;;;5089586;28;20505;-81
2024/03/19 06:56:09;;;;;;;3.45;1.95;;;7.50;99.90;;;;;;5087217;28;20070;-80
2024/03/19 06:58:45;;;;;;;3.30;1.30;;;7.60;99.90;;;;;;5090617;28;20051;-80
2024/03/19 07:01:11;;;;;;;3.00;1.40;;;7.70;99.90;;;;;;5088263;28;20043;-81
2024/03/19 07:03:37;;;;;;;3.35;1.35;;;7.90;99.90;;;;;;5089437;28;20040;-81
2024/03/19 07:06:03;;;;;;;2.97;1.20;;;7.90;99.90;;;;;;5088185;28;20118;-81
2024/03/19 07:08:30;;;;;;;2.30;1.23;;;8.20;99.90;;;;;;5089476;28;20667;-81
2024/03/19 07:10:57;;;;;;;2.22;1.13;;;8.30;99.90;;;;;;5087322;28;20039;-81
2024/03/19 07:13:23;;;;;;;1.85;0.90;;;8.50;99.90;;;;;;5088958;28;20039;-81
2024/03/19 07:15:48;;;;;;;2.17;1.15;;;8.50;99.90;;;;;;5090253;28;20039;-81
2024/03/19 07:18:14;;;;;;;2.55;1.17;;;8.60;99.90;;;;;;5087598;28;20056;-82
2024/03/19 07:20:40;;;;;;;3.63;1.63;;;8.40;99.90;;;;;;5084814;28;20028;-81
2024/03/19 07:23:06;;;;;;;4.30;1.92;;;8.20;99.90;;;;;;5083935;28;20052;-81
2024/03/19 07:25:33;;;;;;;4.47;1.35;;;8.20;99.90;;;;;;5088277;28;20040;-80
2024/03/19 07:27:59;;;;;;;4.15;2.25;;;8.20;99.90;;;;;;5090081;28;20674;-82
2024/03/19 07:30:26;;;;;;;2.60;1.38;;;8.20;99.90;;;;;;5088594;28;20143;-81
2024/03/19 07:32:51;;;;;;;3.70;1.90;;;8.30;99.90;;;;;;5087832;28;20031;-82
2024/03/19 07:35:17;;;;;;;4.18;1.70;;;8.20;99.90;;;;;;5089010;28;20365;-83
2024/03/19 07:37:43;;;;;;;4.15;1.70;;;8.20;99.90;;;;;;5087762;28;20059;-82
2024/03/19 07:40:10;;;;;;;3.78;1.30;;;8.20;99.90;;;;;;5087031;28;20035;-81
2024/03/19 07:42:37;;;;;;;3.50;1.40;;;8.30;99.90;;;;;;5088531;28;20031;-81
2024/03/19 07:45:05;;;;;;;2.60;1.25;;;8.40;99.90;;;;;;5086429;28;20032;-81
2024/03/19 07:47:31;;;;;;;3.53;1.38;;;8.50;99.90;;;;;;5088625;28;20032;-79
2024/03/19 07:49:56;;;;;;;3.38;1.20;;;8.50;99.90;;;;;;5090145;28;20526;-82
2024/03/19 07:52:22;;;;;;;2.80;1.30;;;8.50;99.90;;;;;;5088834;28;20118;-82
2024/03/19 07:54:47;;;;;;;3.00;1.15;;;8.70;99.90;;;;;;5088738;28;20040;-81
2024/03/19 07:57:13;;;;;;;2.75;0.85;;;8.70;99.90;;;;;;5088287;28;20139;-81
2024/03/19 07:59:39;;;;;;;4.60;1.45;;;8.80;99.90;;;;;;5086982;28;20032;-81
2024/03/19 08:02:04;;;;;;;3.17;1.48;;;8.90;99.90;;;;;;5086386;28;20019;-80
2024/03/19 08:04:31;;;;;;;2.60;1.15;;;8.90;99.90;;;;;;5088070;28;20489;-82
2024/03/19 08:06:57;;;;;;;2.38;1.00;;;9.00;99.90;;;;;;5087479;28;20630;-81
2024/03/19 08:09:22;;;;;;;2.40;1.25;;;9.10;99.90;;;;;;5088153;28;20040;-81
2024/03/19 08:11:48;;;;;;;3.28;1.45;;;9.00;99.90;;;;;;5087694;28;20032;-82
2024/03/19 08:14:14;;;;;;;2.85;1.30;;;9.00;99.90;;;;;;5091578;28;20087;-81
2024/03/19 08:16:39;;;;;;;4.07;1.65;;;9.00;99.90;;;;;;5090095;28;20141;-81
2024/03/19 08:19:08;;;;;;;2.50;1.33;;;9.00;99.90;;;;;;5088955;28;20047;-78
2024/03/19 08:21:35;;;;;;;3.85;1.75;;;9.00;99.90;;;;;;5082848;28;20168;-79
2024/03/19 08:24:02;;;;;;;2.47;1.38;;;9.10;99.90;;;;;;5089863;28;20035;-81
2024/03/19 08:26:27;;;;;;;5.20;1.25;;;9.10;99.90;;;;;;5090019;28;20070;-80
2024/03/19 08:28:53;;;;;;;10.30;2.97;;;9.20;99.90;;;;;;5090872;28;20070;-82
2024/03/19 08:31:18;;;;;;;8.20;1.83;;;9.50;99.90;;;;;;5090510;28;20130;-80
2024/03/19 08:33:44;;;;;;;3.33;1.30;;;9.40;99.90;;;;;;5089629;28;20062;-80
2024/03/19 08:36:10;;;;;;;4.53;1.70;;;9.50;99.90;;;;;;5090058;28;20055;-79
2024/03/19 08:38:36;;;;;;;4.32;1.73;;;9.60;99.90;;;;;;5090280;28;20031;-81
2024/03/19 08:41:04;;;;;;;5.40;1.63;;;9.70;99.90;;;;;;5090065;28;20031;-77
2024/03/19 08:43:30;;;;;;;3.47;1.23;;;9.70;99.90;;;;;;5089662;28;20028;-79
2024/03/19 08:45:56;;;;;;;4.45;1.75;;;9.70;99.90;;;;;;5090034;28;20043;-80
2024/03/19 08:48:21;;;;;;;1.75;0.85;;;9.80;99.90;;;;;;5089927;28;20430;-81
2024/03/19 08:50:47;;;;;;;3.33;1.92;;;9.80;99.90;;;;;;5090634;28;20069;-79
2024/03/19 08:53:13;;;;;;;4.47;1.63;;;9.90;99.90;;;;;;5089553;28;20646;-79
2024/03/19 08:55:38;;;;;;;3.40;1.42;;;9.90;99.90;;;;;;5089557;28;20453;-78
2024/03/19 08:58:05;;;;;;;3.70;1.70;;;10.00;99.90;;;;;;5094616;28;20081;-77
2024/03/19 09:00:31;;;;;;;3.65;1.38;;;10.00;99.90;;;;;;5093326;28;20092;-77
2024/03/19 09:02:57;;;;;;;2.88;1.33;;;10.00;99.90;;;;;;5093559;28;20461;-79
2024/03/19 09:05:23;;;;;;;2.90;1.50;;;10.10;99.90;;;;;;5094016;28;20358;-78
2024/03/19 09:07:49;;;;;;;2.97;1.60;;;10.10;99.90;;;;;;5092641;28;20036;-79
2024/03/19 09:10:15;;;;;;;3.72;1.33;;;10.20;99.90;;;;;;5093134;28;20028;-80
2024/03/19 09:12:40;;;;;;;3.33;1.58;;;10.50;99.90;;;;;;5091898;27;20215;-80
2024/03/19 09:15:11;;;;;;;2.67;1.30;;;10.60;99.90;;;;;;5089635;28;20043;-80
2024/03/19 09:17:37;;;;;;;3.60;1.60;;;10.70;99.90;;;;;;5092071;28;20896;-79
2024/03/19 09:20:05;;;;;;;2.47;1.40;;;10.60;99.90;;;;;;5091062;28;20253;-78
2024/03/19 09:22:31;;;;;;;3.83;1.60;;;10.70;99.90;;;;;;5092192;28;20730;-80
2024/03/19 09:24:57;;;;;;;11.10;2.15;;;10.70;99.90;;;;;;5090493;28;20036;-77
2024/03/19 09:27:22;;;;;;;7.78;1.75;;;11.30;99.90;;;;;;5092707;28;20105;-79
2024/03/19 09:29:48;;;;;;;4.57;1.85;;;11.60;99.90;;;;;;5094551;28;20501;-79
2024/03/19 09:32:13;;;;;;;2.88;1.30;;;11.90;99.90;;;;;;5093695;28;20059;-81
2024/03/19 09:34:39;;;;;;;3.30;1.42;;;12.10;99.90;;;;;;5092898;28;20031;-76
2024/03/19 09:37:05;;;;;;;4.80;1.30;;;12.20;99.90;;;;;;5094292;27;20031;-77
2024/03/19 09:39:30;;;;;;;6.00;1.30;;;12.10;99.90;;;;;;5092054;28;20027;-77
2024/03/19 09:42:12;;;;;;;3.17;0.95;;;12.20;99.90;;;;;;5091635;28;20032;-76
2024/03/19 09:45:27;;;;;;;2.13;1.15;;;13.20;99.90;;;;;;5067202;27;20149;-77
2024/03/19 09:47:55;;;;;;;1.95;1.08;;;12.80;99.90;;;;;;5066605;28;20032;-79
2024/03/19 09:50:21;;;;;;;1.98;0.85;;;12.60;99.90;;;;;;5067906;28;20620;-78
2024/03/19 09:52:53;;;;;;;3.92;1.08;;;12.60;99.90;;;;;;5067502;28;20059;-77
2024/03/19 09:55:19;;;;;;;2.00;0.80;;;12.80;99.90;;;;;;5067906;28;20112;-77
2024/03/19 09:57:46;;;;;;;1.75;0.88;;;13.00;99.90;;;;;;5066879;28;20135;-78
2024/03/19 10:00:28;;;;;;;2.70;1.02;;;12.90;99.90;;;;;;5067651;28;20676;-77
2024/03/19 10:02:54;;;;;;;2.50;0.88;;;12.80;99.90;;;;;;5067836;28;20043;-79
2024/03/19 10:05:21;;;;;;;3.60;0.82;;;12.80;99.90;;;;;;5067062;28;20505;-77
2024/03/19 10:07:52;;;;;;;3.22;0.90;;;13.00;99.90;;;;;;5067539;28;20036;-78
2024/03/19 10:10:17;;;;;;;1.90;0.90;;;13.20;99.90;;;;;;5067658;28;20113;-79
2024/03/19 10:12:43;;;;;;;1.98;0.80;;;12.90;99.90;;;;;;5065717;28;20107;-81
2024/03/19 10:15:18;;;;;;;1.73;0.80;;;12.80;99.90;;;;;;5066430;28;20067;-80
2024/03/19 10:17:44;;;;;;;2.53;1.10;;;12.80;99.90;;;;;;5068221;28;20102;-80
2024/03/19 10:20:11;;;;;;;2.55;0.70;;;12.80;99.90;;;;;;5067951;28;20714;-78
2024/03/19 10:22:37;;;;;;;2.53;0.90;;;12.80;99.90;;;;;;5066083;28;20052;-77
2024/03/19 10:25:05;;;;;;;2.28;0.65;;;12.90;99.90;;;;;;5067562;28;20120;-77
2024/03/19 10:27:31;;;;;;;7.35;1.10;;;13.00;99.90;;;;;;5067574;28;20422;-77
2024/03/19 10:29:57;;;;;;;3.00;0.90;;;13.20;99.90;;;;;;5065594;28;20047;-79
2024/03/19 10:32:23;;;;;;;4.40;0.90;;;13.30;99.90;;;;;;5066810;28;20382;-77
2024/03/19 10:34:50;;;;;;;2.60;0.60;;;13.40;99.90;;;;;;5067176;28;21254;-77
2024/03/19 10:37:18;;;;;;;1.30;0.50;;;13.60;99.90;;;;;;5063219;28;20110;-77
2024/03/19 10:39:44;;;;;;;2.00;0.70;;;13.70;99.90;;;;;;5062730;28;20124;-78
2024/03/19 10:42:12;;;;;;;1.02;0.55;;;13.90;99.90;;;;;;5066763;28;20036;-77
2024/03/19 10:44:38;;;;;;;1.50;0.73;;;13.80;99.90;;;;;;5065343;28;20056;-77
2024/03/19 10:47:05;;;;;;;4.15;1.23;;;13.90;99.90;;;;;;5063299;28;20048;-78
2024/03/19 10:49:33;;;;;;;6.68;0.95;;;14.00;99.90;;;;;;5064719;28;20094;-77
2024/03/19 10:52:05;;;;;;;1.50;0.40;;;14.20;99.90;;;;;;5066269;28;20089;-76
2024/03/19 10:54:36;;;;;;;2.20;0.73;;;14.30;99.90;;;;;;5063333;28;20054;-77
2024/03/19 10:57:02;;;;;;;4.15;0.82;;;14.50;99.90;;;;;;5050629;28;20125;-76
2024/03/19 10:59:38;;;;;;;5.47;0.90;;;14.50;99.90;;;;;;5053765;28;20039;-77
2024/03/19 11:02:07;;;;;;;2.30;0.68;;;14.70;99.90;;;;;;5051656;28;20512;-79
2024/03/19 11:04:33;;;;;;;1.77;0.65;;;14.90;99.70;;;;;;5051099;28;20036;-79
2024/03/19 11:06:59;;;;;;;26.08;0.93;;;14.90;99.60;;;;;;5053056;28;20543;-79
2024/03/19 11:09:26;;;;;;;2.08;0.70;;;14.90;99.90;;;;;;5056799;28;20032;-79
2024/03/19 11:11:58;;;;;;;2.70;0.50;;;15.10;99.90;;;;;;5057836;28;20024;-79
2024/03/19 11:14:24;;;;;;;0.80;0.40;;;15.10;99.80;;;;;;5055644;28;20063;-79
2024/03/19 11:16:50;;;;;;;1.65;0.70;;;15.20;99.90;;;;;;5055773;28;20024;-79
2024/03/19 11:19:24;;;;;;;3.38;1.30;;;15.20;99.80;;;;;;5057601;28;20032;-79
2024/03/19 11:21:54;;;;;;;1.98;0.30;;;15.10;98.20;;;;;;5057466;28;20107;-78
2024/03/19 11:24:19;;;;;;;0.40;0.25;;;15.20;98.90;;;;;;5057636;28;20541;-79
2024/03/19 11:26:45;;;;;;;1.25;0.50;;;15.30;99.50;;;;;;5056162;28;20036;-79
2024/03/19 11:29:14;;;;;;;2.10;0.73;;;15.50;99.00;;;;;;5057133;28;20029;-79
2024/03/19 11:31:44;;;;;;;0.82;0.50;;;15.40;98.60;;;;;;5056790;28;20036;-79
2024/03/19 11:34:14;;;;;;;3.10;0.60;;;15.70;99.00;;;;;;5057063;28;20032;-79
2024/03/19 11:36:45;;;;;;;2.03;0.57;;;15.90;98.70;;;;;;5055796;28;20050;-79
2024/03/19 11:39:12;;;;;;;1.13;0.55;;;15.70;97.70;;;;;;5057340;28;20031;-79
2024/03/19 11:41:37;;;;;;;0.40;0.30;;;15.90;97.60;;;;;;5057629;28;20627;-79
2024/03/19 11:44:03;;;;;;;3.15;0.40;;;15.90;97.80;;;;;;5057054;28;20049;-79
2024/03/19 11:46:29;;;;;;;1.33;0.50;;;16.00;97.10;;;;;;5055565;28;20588;-79
2024/03/19 11:48:54;;;;;;;1.52;0.60;;;16.10;98.30;;;;;;5056081;28;20036;-79
2024/03/19 11:51:20;;;;;;;0.98;0.50;;;16.30;97.40;;;;;;5056957;28;21082;-78
2024/03/19 11:53:46;;;;;;;0.47;0.30;;;16.20;96.90;;;;;;5057053;28;20504;-79
2024/03/19 11:56:12;;;;;;;2.80;0.68;;;16.40;97.50;;;;;;5051366;28;20250;-79
2024/03/19 11:58:39;;;;;;;1.02;0.30;;;16.30;96.30;;;;;;5056837;28;20043;-79
2024/03/19 12:01:06;;;;;;;0.55;0.30;;;16.60;96.20;;;;;;5056080;28;20035;-79
2024/03/19 12:03:32;;;;;;;1.05;0.40;;;16.70;97.90;;;;;;5056243;28;20573;-79
2024/03/19 12:05:58;;;;;;;1.83;0.30;;;16.80;97.10;;;;;;5054950;28;20678;-79
2024/03/19 12:08:23;;;;;;;1.88;0.40;;;16.90;97.60;;;;;;5052649;28;20784;-79
2024/03/19 12:10:49;;;;;;;2.35;0.40;;;17.00;97.10;;;;;;5051319;28;20032;-80
2024/03/19 12:13:15;;;;;;;1.60;0.60;;;17.30;96.70;;;;;;5052307;28;20548;-79
2024/03/19 12:15:41;;;;;;;1.00;0.55;;;17.50;97.30;;;;;;5048673;28;20425;-79
2024/03/19 12:18:07;;;;;;;1.95;1.00;;;17.60;97.60;;;;;;5051692;28;20040;-80
2024/03/19 12:20:34;;;;;;;1.40;0.50;;;17.60;96.80;;;;;;5045926;28;20064;-79
2024/03/19 12:23:00;;;;;;;1.17;0.30;;;17.50;96.30;;;;;;5047743;28;20040;-81
2024/03/19 12:25:28;;;;;;;0.90;0.28;;;17.40;95.60;;;;;;5049896;28;20032;-81
2024/03/19 12:27:54;;;;;;;6.97;0.80;;;17.30;96.00;;;;;;5051363;28;20033;-85
2024/03/19 12:30:21;;;;;;;1.52;0.50;;;17.40;96.70;;;;;;5050024;28;20033;-82
2024/03/19 12:33:00;;;;;;;1.75;0.63;;;17.70;95.60;;;;;;5051147;28;20024;-83
2024/03/19 12:35:26;;;;;;;2.22;0.50;;;17.70;96.20;;;;;;5050185;28;20188;-82
2024/03/19 12:37:52;;;;;;;2.40;0.85;;;17.70;96.90;;;;;;5050532;28;20356;-83
2024/03/19 12:40:18;;;;;;;0.63;0.50;;;17.60;95.90;;;;;;5047437;28;20037;-80
2024/03/19 12:42:45;;;;;;;1.02;0.57;;;17.50;97.10;;;;;;5048399;28;20581;-80
2024/03/19 12:45:13;;;;;;;2.78;0.73;;;17.70;97.80;;;;;;5044622;28;20036;-81
2024/03/19 12:47:39;;;;;;;3.45;0.52;;;17.80;97.30;;;;;;5045030;28;20035;-81
2024/03/19 12:50:06;;;;;;;0.73;0.30;;;17.90;96.20;;;;;;5047976;28;21331;-82
2024/03/19 12:52:31;;;;;;;0.75;0.50;;;18.00;95.70;;;;;;5047769;28;20397;-80
2024/03/19 12:54:57;;;;;;;1.85;0.47;;;18.00;96.30;;;;;;5047875;28;20041;-83
2024/03/19 12:57:23;;;;;;;1.33;0.55;;;18.10;95.40;;;;;;5046560;28;20572;-82
2024/03/19 12:59:49;;;;;;;1.25;0.43;;;18.20;95.90;;;;;;5044038;28;20044;-81
2024/03/19 13:02:15;;;;;;;1.10;0.40;;;18.30;95.90;;;;;;5046528;28;20021;-78
2024/03/19 13:04:41;;;;;;;4.80;0.95;;;18.30;95.10;;;;;;5048312;28;20129;-79
2024/03/19 13:07:07;;;;;;;2.00;0.65;;;18.20;95.30;;;;;;5044462;28;20033;-80
2024/03/19 13:09:32;;;;;;;1.67;0.47;;;18.20;94.90;;;;;;5045730;28;20037;-80